createdAt,value
2023-03-29T00:00:43.655Z,-10914.72
2023-03-29T00:03:50.086Z,-10911.78
2023-03-29T00:06:57.997Z,-10912.19
2023-03-29T00:10:05.798Z,-10914.72
2023-03-29T00:13:11.897Z,-10909.94
2023-03-29T00:16:17.953Z,-10913.31
2023-03-29T00:19:24.273Z,-10914.44
2023-03-29T00:22:32.246Z,-10915.84
2023-03-29T00:25:38.610Z,-10920.59
2023-03-29T00:28:44.939Z,-10915.00
2023-03-29T00:31:54.157Z,-10913.72
2023-03-29T00:35:01.128Z,-10909.41
2023-03-29T00:38:08.781Z,-10913.31
2023-03-29T00:41:15.595Z,-10909.13
2023-03-29T00:45:09.419Z,-10912.19
2023-03-29T00:48:18.881Z,-10909.13
2023-03-29T00:51:29.141Z,-10903.94
2023-03-29T00:54:38.101Z,-10905.19
2023-03-29T00:57:46.940Z,-10901.41
2023-03-29T01:00:58.053Z,-10909.41
2023-03-29T01:04:08.646Z,-10912.19
2023-03-29T01:07:21.830Z,-10902.94
2023-03-29T01:10:35.759Z,-10899.47
2023-03-29T01:13:45.533Z,-10904.22
2023-03-29T01:16:52.076Z,-10903.22
2023-03-29T01:20:08.057Z,-10904.06
2023-03-29T01:23:28.720Z,-10904.34
2023-03-29T01:26:46.878Z,-10901.84
2023-03-29T01:29:58.738Z,-10901.84
2023-03-29T01:33:11.628Z,-10905.47
2023-03-29T01:36:23.522Z,-10910.94
2023-03-29T01:39:29.752Z,-10911.63
2023-03-29T01:42:46.782Z,-10906.59
2023-03-29T01:46:01.550Z,-10909.94
2023-03-29T01:49:13.602Z,-10908.56
2023-03-29T01:52:28.997Z,-10909.69
2023-03-29T01:55:39.575Z,-10909.13
2023-03-29T01:58:48.607Z,-10911.22
2023-03-29T02:02:00.356Z,-10902.66
2023-03-29T02:05:10.086Z,-10908.69
2023-03-29T02:08:18.824Z,-10912.47
2023-03-29T02:11:27.146Z,-10909.53
2023-03-29T02:14:33.582Z,-10907.28
2023-03-29T02:17:41.363Z,-10908.56
2023-03-29T02:20:50.121Z,-10910.22
2023-03-29T02:23:58.998Z,-10904.63
2023-03-29T02:27:06.304Z,-10901.28
2023-03-29T02:30:14.661Z,-10897.50
2023-03-29T02:33:26.677Z,-10898.91
2023-03-29T02:36:40.436Z,-10903.22
2023-03-29T02:39:49.943Z,-10907.72
2023-03-29T02:42:58.121Z,-10904.06
2023-03-29T02:46:06.508Z,-10908.97
2023-03-29T02:49:14.402Z,-10899.03
2023-03-29T02:52:25.934Z,-10904.78
2023-03-29T02:55:34.926Z,-10909.94
2023-03-29T02:58:41.186Z,-10897.50
2023-03-29T03:01:47.737Z,-10898.75
2023-03-29T03:04:55.396Z,-10904.63
2023-03-29T03:08:01.401Z,-10912.63
2023-03-29T03:11:08.642Z,-10909.69
2023-03-29T03:14:14.878Z,-10901.84
2023-03-29T03:17:20.938Z,-10900.44
2023-03-29T03:20:28.273Z,-10909.94
2023-03-29T03:23:35.558Z,-10903.78
2023-03-29T03:26:41.867Z,-10902.25
2023-03-29T03:29:48.769Z,-10907.72
2023-03-29T03:32:55.766Z,-10905.91
2023-03-29T03:36:06.305Z,-10902.81
2023-03-29T03:39:12.424Z,-10902.81
2023-03-29T03:42:18.673Z,-10907.44
2023-03-29T03:45:26.090Z,-10903.50
2023-03-29T03:48:32.577Z,-10903.38
2023-03-29T03:51:42.013Z,-10908.41
2023-03-29T03:54:50.331Z,-10906.44
2023-03-29T03:57:56.398Z,-10907.44
2023-03-29T04:01:02.926Z,-10907.56
2023-03-29T04:04:09.557Z,-10902.66
2023-03-29T04:07:18.066Z,-10903.78
2023-03-29T04:10:24.711Z,-10903.38
2023-03-29T04:13:31.598Z,-10901.41
2023-03-29T04:16:38.119Z,-10900.16
2023-03-29T04:19:44.495Z,-10900.16
2023-03-29T04:22:52.108Z,-10890.78
2023-03-29T04:25:58.484Z,-10885.75
2023-03-29T04:29:04.877Z,-10893.44
2023-03-29T04:32:11.804Z,-10894.69
2023-03-29T04:35:18.083Z,-10894.56
2023-03-29T04:38:26.954Z,-10896.66
2023-03-29T04:41:33.432Z,-10894.84
2023-03-29T04:44:41.535Z,-10896.78
2023-03-29T04:47:48.115Z,-10898.06
2023-03-29T04:50:55.876Z,-10899.31
2023-03-29T04:54:03.412Z,-10900.44
2023-03-29T04:57:10.114Z,-10918.63
2023-03-29T05:00:17.307Z,-10914.28
2023-03-29T05:03:23.354Z,-10919.06
2023-03-29T05:06:30.149Z,-10927.03
2023-03-29T05:09:37.646Z,-10920.88
2023-03-29T05:12:43.810Z,-10913.31
2023-03-29T05:15:49.901Z,-10917.25
2023-03-29T05:18:56.281Z,-10919.75
2023-03-29T05:22:02.491Z,-10932.63
2023-03-29T05:25:12.583Z,-10934.31
2023-03-29T05:28:18.568Z,-10949.88
2023-03-29T05:31:25.022Z,-10939.22
2023-03-29T05:34:32.064Z,-10944.69
2023-03-29T05:37:39.140Z,-10944.97
2023-03-29T05:40:46.647Z,-10945.66
2023-03-29T05:43:53.382Z,-10945.53
2023-03-29T05:46:59.861Z,-10945.53
2023-03-29T05:50:09.521Z,-10965.56
2023-03-29T05:53:16.000Z,-10946.09
2023-03-29T05:56:23.786Z,-10948.75
2023-03-29T05:59:29.988Z,-10945.81
2023-03-29T06:02:36.878Z,-10963.88
2023-03-29T06:05:43.145Z,-10954.06
2023-03-29T06:08:49.510Z,-10949.59
2023-03-29T06:11:57.721Z,-10956.44
2023-03-29T06:15:05.167Z,-10958.97
2023-03-29T06:18:11.682Z,-10958.56
2023-03-29T06:21:18.008Z,-10958.69
2023-03-29T06:24:25.233Z,-10959.25
2023-03-29T06:27:33.349Z,-10967.66
2023-03-29T06:30:39.808Z,-10976.50
2023-03-29T06:33:46.779Z,-10969.91
2023-03-29T06:36:55.419Z,-10977.91
2023-03-29T06:40:07.026Z,-10983.34
2023-03-29T06:43:14.977Z,-10969.91
2023-03-29T06:46:21.746Z,-10976.50
2023-03-29T06:49:28.035Z,-10978.59
2023-03-29T06:52:34.403Z,-10993.03
2023-03-29T06:55:41.440Z,-10980.69
2023-03-29T06:58:49.231Z,-10978.03
2023-03-29T07:01:55.963Z,-10983.06
2023-03-29T07:05:02.665Z,-10993.59
2023-03-29T07:08:16.624Z,-11001.72
2023-03-29T07:11:23.285Z,-10996.25
2023-03-29T07:14:31.055Z,-10981.81
2023-03-29T07:17:37.153Z,-10995.56
2023-03-29T07:20:43.348Z,-10995.41
2023-03-29T07:23:50.375Z,-10997.81
2023-03-29T07:27:04.167Z,-10988.97
2023-03-29T07:30:16.637Z,-10999.75
2023-03-29T07:33:23.267Z,-11007.91
2023-03-29T07:36:29.774Z,-11005.38
2023-03-29T07:39:37.337Z,-11010.28
2023-03-29T07:42:43.986Z,-11011.97
2023-03-29T07:45:52.191Z,-11007.47
2023-03-29T07:48:58.556Z,-11018.13
2023-03-29T07:52:08.336Z,-11004.38
2023-03-29T07:55:15.578Z,-11023.47
2023-03-29T07:58:24.699Z,-11020.50
2023-03-29T08:01:32.368Z,-11014.34
2023-03-29T08:04:39.107Z,-11015.47
2023-03-29T08:07:46.900Z,-11012.25
2023-03-29T08:10:54.384Z,-11022.19
2023-03-29T08:14:00.834Z,-11047.03
2023-03-29T08:17:08.754Z,-11032.84
2023-03-29T08:20:17.119Z,-11022.06
2023-03-29T08:23:23.869Z,-11031.44
2023-03-29T08:26:30.082Z,-11028.78
2023-03-29T08:29:36.394Z,-11026.81
2023-03-29T08:32:48.622Z,-11046.75
2023-03-29T08:35:57.416Z,-11042.53
2023-03-29T08:39:03.876Z,-11043.94
2023-03-29T08:42:26.732Z,-11051.50
2023-03-29T08:45:43.742Z,-11040.44
2023-03-29T08:48:58.194Z,-11060.78
2023-03-29T08:52:14.555Z,-11053.19
2023-03-29T08:55:28.445Z,-11045.06
2023-03-29T08:58:36.552Z,-11054.75
2023-03-29T09:01:44.539Z,-11055.16
2023-03-29T09:04:57.649Z,-11059.09
2023-03-29T09:08:04.118Z,-11049.00
2023-03-29T09:11:23.655Z,-11047.59
2023-03-29T09:14:44.810Z,-11059.53
2023-03-29T09:18:02.833Z,-11049.41
2023-03-29T09:21:18.478Z,-11051.50
2023-03-29T09:24:42.832Z,-11060.78
2023-03-29T09:27:54.620Z,-11060.78
2023-03-29T09:31:07.718Z,-11073.69
2023-03-29T09:34:19.592Z,-11077.63
2023-03-29T09:37:33.771Z,-11073.97
2023-03-29T09:40:44.160Z,-11072.56
2023-03-29T09:43:52.585Z,-11076.78
2023-03-29T09:47:07.658Z,-11072.56
2023-03-29T09:50:30.166Z,-11092.22
2023-03-29T09:53:38.683Z,-11085.75
2023-03-29T09:56:45.621Z,-11071.72
2023-03-29T09:59:53.254Z,-11092.22
2023-03-29T10:03:00.553Z,-11115.69
2023-03-29T10:06:11.324Z,-11086.31
2023-03-29T10:09:22.361Z,-11103.59
2023-03-29T10:12:29.399Z,-11097.00
2023-03-29T10:15:35.851Z,-11096.56
2023-03-29T10:18:44.202Z,-11089.69
2023-03-29T10:21:51.723Z,-11107.81
2023-03-29T10:24:59.860Z,-11096.16
2023-03-29T10:28:08.740Z,-11119.75
2023-03-29T10:31:20.168Z,-11091.66
2023-03-29T10:34:28.216Z,-11116.25
2023-03-29T10:37:35.288Z,-11099.53
2023-03-29T10:40:47.510Z,-11088.00
2023-03-29T10:43:54.118Z,-11106.84
2023-03-29T10:47:10.690Z,-11125.50
2023-03-29T10:50:19.731Z,-11127.91
2023-03-29T10:53:30.334Z,-11105.72
2023-03-29T10:56:42.963Z,-11108.37
2023-03-29T10:59:55.610Z,-11123.53
2023-03-29T11:03:20.269Z,-11105.72
2023-03-29T11:06:36.402Z,-11120.03
2023-03-29T11:09:51.471Z,-11103.59
2023-03-29T11:13:06.474Z,-11139.69
2023-03-29T11:16:22.344Z,-11127.06
2023-03-29T11:19:46.830Z,-11120.88
2023-03-29T11:23:01.626Z,-11118.75
2023-03-29T11:26:17.022Z,-11125.09
2023-03-29T11:29:30.606Z,-11130.84
2023-03-29T11:32:49.792Z,-11142.50
2023-03-29T11:36:04.742Z,-11145.59
2023-03-29T11:39:20.766Z,-11140.53
2023-03-29T11:42:32.462Z,-11134.91
2023-03-29T11:45:45.675Z,-11158.81
2023-03-29T11:48:57.162Z,-11154.31
2023-03-29T11:52:10.486Z,-11138.72
2023-03-29T11:55:23.013Z,-11149.81
2023-03-29T11:58:43.924Z,-11144.06
2023-03-29T12:01:56.448Z,-11141.66
2023-03-29T12:05:09.208Z,-11155.16
2023-03-29T12:08:20.300Z,-11139.56
2023-03-29T12:11:33.098Z,-11143.91
2023-03-29T12:14:51.089Z,-11155.72
2023-03-29T12:18:07.149Z,-11155.44
2023-03-29T12:21:17.319Z,-11180.16
2023-03-29T12:24:23.870Z,-11150.94
2023-03-29T12:27:33.979Z,-11164.00
2023-03-29T12:30:56.016Z,-11148.53
2023-03-29T12:34:20.588Z,-11163.31
2023-03-29T12:37:39.227Z,-11157.69
2023-03-29T12:40:48.552Z,-11172.03
2023-03-29T12:43:55.479Z,-11182.13
2023-03-29T12:47:03.300Z,-11183.41
2023-03-29T12:50:25.667Z,-11165.84
2023-03-29T12:53:36.111Z,-11159.50
2023-03-29T12:56:54.931Z,-11167.66
2023-03-29T13:00:14.164Z,-11160.91
2023-03-29T13:03:23.577Z,-11161.63
2023-03-29T13:06:34.572Z,-11161.63
2023-03-29T13:09:50.482Z,-11166.97
2023-03-29T13:12:57.944Z,-11173.16
2023-03-29T13:16:13.820Z,-11195.91
2023-03-29T13:19:31.855Z,-11181.44
2023-03-29T13:22:51.935Z,-11187.47
2023-03-29T13:26:27.310Z,-11184.09
2023-03-29T13:29:56.874Z,-11173.44
2023-03-29T13:33:20.257Z,-11151.78
2023-03-29T13:36:43.342Z,-11172.03
2023-03-29T13:39:53.758Z,-11175.38
2023-03-29T13:43:02.106Z,-11162.75
2023-03-29T13:46:24.683Z,-11186.63
2023-03-29T13:49:34.260Z,-11184.25
2023-03-29T13:52:45.867Z,-11172.03
2023-03-29T13:55:55.359Z,-11177.50
2023-03-29T13:59:07.474Z,-11177.63
2023-03-29T14:02:23.337Z,-11190.56
2023-03-29T14:05:33.182Z,-11209.84
2023-03-29T14:08:42.633Z,-11187.19
2023-03-29T14:11:51.568Z,-11181.16
2023-03-29T14:15:02.673Z,-11179.59
2023-03-29T14:18:12.385Z,-11196.34
2023-03-29T14:21:21.168Z,-11198.03
2023-03-29T14:24:29.641Z,-11232.75
2023-03-29T14:27:37.887Z,-11207.44
2023-03-29T14:30:47.947Z,-11205.75
2023-03-29T14:33:54.848Z,-11192.53
2023-03-29T14:37:01.098Z,-11177.91
2023-03-29T14:40:15.533Z,-11197.88
2023-03-29T14:43:30.054Z,-11181.84
2023-03-29T14:46:37.060Z,-11165.84
2023-03-29T14:49:43.673Z,-11171.47
2023-03-29T14:52:52.574Z,-11157.41
2023-03-29T14:55:59.593Z,-11150.09
2023-03-29T14:59:24.468Z,-11152.91
2023-03-29T15:02:33.339Z,-11137.72
2023-03-29T15:05:42.278Z,-11136.59
2023-03-29T15:09:02.089Z,-11136.03
2023-03-29T15:12:17.482Z,-11132.38
2023-03-29T15:15:26.310Z,-11140.25
2023-03-29T15:18:38.689Z,-11135.34
2023-03-29T15:21:47.939Z,-11129.31
2023-03-29T15:24:54.103Z,-11125.78
2023-03-29T15:28:01.687Z,-11128.75
2023-03-29T15:31:14.479Z,-11121.72
2023-03-29T15:34:27.664Z,-11128.19
2023-03-29T15:37:34.385Z,-11123.13
2023-03-29T15:40:41.236Z,-11125.38
2023-03-29T15:43:47.608Z,-11123.97
2023-03-29T15:46:57.790Z,-11121.72
2023-03-29T15:50:04.308Z,-11119.31
2023-03-29T15:53:15.516Z,-11114.69
2023-03-29T15:56:23.109Z,-11112.03
2023-03-29T15:59:29.462Z,-11112.03
2023-03-29T16:02:37.222Z,-11107.69
2023-03-29T16:05:44.129Z,-11110.47
2023-03-29T16:08:50.453Z,-11105.72
2023-03-29T16:11:56.757Z,-11105.28
2023-03-29T16:15:03.222Z,-11103.75
2023-03-29T16:18:11.089Z,-11099.81
2023-03-29T16:21:20.372Z,-11095.88
2023-03-29T16:24:29.173Z,-11095.59
2023-03-29T16:27:35.885Z,-11094.75
2023-03-29T16:30:42.075Z,-11094.19
2023-03-29T16:33:50.673Z,-11094.31
2023-03-29T16:36:57.165Z,-11088.84
2023-03-29T16:40:07.379Z,-11087.31
2023-03-29T16:43:16.407Z,-11087.44
2023-03-29T16:46:23.468Z,-11086.31
2023-03-29T16:49:31.377Z,-11087.16
2023-03-29T16:52:37.989Z,-11086.03
2023-03-29T16:55:44.314Z,-11078.75
2023-03-29T16:58:50.885Z,-11081.28
2023-03-29T17:01:57.188Z,-11084.63
2023-03-29T17:05:06.157Z,-11083.50
2023-03-29T17:08:12.363Z,-11084.63
2023-03-29T17:11:23.283Z,-11080.84
2023-03-29T17:14:29.771Z,-11084.63
2023-03-29T17:17:37.610Z,-11085.19
2023-03-29T17:20:45.629Z,-11085.47
2023-03-29T17:23:51.739Z,-11078.75
2023-03-29T17:26:58.305Z,-11081.28
2023-03-29T17:30:05.008Z,-11081.56
2023-03-29T17:33:11.536Z,-11079.03
2023-03-29T17:36:24.308Z,-11079.88
2023-03-29T17:39:30.918Z,-11074.81
2023-03-29T17:42:37.040Z,-11075.94
2023-03-29T17:45:43.459Z,-11078.19
2023-03-29T17:48:51.387Z,-11076.22
2023-03-29T17:51:59.925Z,-11072.84
2023-03-29T17:55:11.105Z,-11073.28
2023-03-29T17:58:17.186Z,-11075.94
2023-03-29T18:01:23.512Z,-11070.31
2023-03-29T18:04:29.940Z,-11069.75
2023-03-29T18:07:38.524Z,-11069.75
2023-03-29T18:10:45.040Z,-11070.88
2023-03-29T18:13:51.874Z,-11073.28
2023-03-29T18:16:58.270Z,-11071.16
2023-03-29T18:20:09.500Z,-11070.59
2023-03-29T18:23:17.146Z,-11070.59
2023-03-29T18:26:23.565Z,-11068.34
2023-03-29T18:29:30.053Z,-11069.47
2023-03-29T18:32:36.426Z,-11070.88
2023-03-29T18:35:48.699Z,-11067.66
2023-03-29T18:38:56.551Z,-11069.75
2023-03-29T18:42:03.256Z,-11068.91
2023-03-29T18:45:11.058Z,-11067.66
2023-03-29T18:48:17.505Z,-11069.91
2023-03-29T18:51:24.214Z,-11065.00
2023-03-29T18:54:31.874Z,-11066.38
2023-03-29T18:57:38.295Z,-11069.34
2023-03-29T19:00:44.861Z,-11066.66
2023-03-29T19:03:51.044Z,-11068.91
2023-03-29T19:06:57.357Z,-11069.63
2023-03-29T19:10:06.760Z,-11068.63
2023-03-29T19:13:13.264Z,-11071.72
2023-03-29T19:16:20.255Z,-11069.63
2023-03-29T19:19:27.372Z,-11069.47
2023-03-29T19:22:34.047Z,-11070.88
2023-03-29T19:25:43.526Z,-11069.19
2023-03-29T19:28:49.810Z,-11068.91
2023-03-29T19:31:57.131Z,-11071.72
2023-03-29T19:35:04.456Z,-11070.88
2023-03-29T19:38:10.941Z,-11069.47
2023-03-29T19:41:19.277Z,-11071.72
2023-03-29T19:44:25.926Z,-11074.81
2023-03-29T19:47:32.419Z,-11072.28
2023-03-29T19:50:40.818Z,-11073.12
2023-03-29T19:53:47.634Z,-11075.81
2023-03-29T19:56:57.527Z,-11077.06
2023-03-29T20:00:08.106Z,-11079.03
2023-03-29T20:03:15.911Z,-11078.19
2023-03-29T20:06:22.762Z,-11075.38
2023-03-29T20:09:29.051Z,-11077.06
2023-03-29T20:12:37.140Z,-11076.22
2023-03-29T20:15:47.118Z,-11077.91
2023-03-29T20:18:54.048Z,-11076.78
2023-03-29T20:22:00.870Z,-11079.88
2023-03-29T20:25:07.745Z,-11077.91
2023-03-29T20:28:15.444Z,-11080.16
2023-03-29T20:31:21.886Z,-11080.00
2023-03-29T20:34:28.356Z,-11077.34
2023-03-29T20:37:34.928Z,-11079.72
2023-03-29T20:40:42.125Z,-11079.31
2023-03-29T20:43:58.511Z,-11079.44
2023-03-29T20:47:06.744Z,-11077.19
2023-03-29T20:50:13.178Z,-11078.47
2023-03-29T20:53:20.621Z,-11081.28
2023-03-29T20:56:27.820Z,-11079.44
2023-03-29T20:59:35.797Z,-11080.44
2023-03-29T21:02:42.077Z,-11080.00
2023-03-29T21:05:49.094Z,-11078.31
2023-03-29T21:08:55.428Z,-11076.22
2023-03-29T21:12:01.594Z,-11076.78
2023-03-29T21:15:13.479Z,-11076.06
2023-03-29T21:18:20.209Z,-11076.22
2023-03-29T21:21:28.876Z,-11074.25
2023-03-29T21:24:36.584Z,-11072.84
2023-03-29T21:27:43.384Z,-11070.47
2023-03-29T21:30:51.441Z,-11071.59
2023-03-29T21:33:57.899Z,-11070.31
2023-03-29T21:37:04.362Z,-11068.63
2023-03-29T21:40:12.479Z,-11068.34
2023-03-29T21:43:18.855Z,-11065.28
2023-03-29T21:46:26.471Z,-11069.91
2023-03-29T21:49:32.711Z,-11065.56
2023-03-29T21:52:39.213Z,-11068.50
2023-03-29T21:55:45.888Z,-11064.84
2023-03-29T21:58:51.987Z,-11059.81
2023-03-29T22:01:59.569Z,-11059.94
2023-03-29T22:05:07.116Z,-11063.16
2023-03-29T22:08:13.632Z,-11059.09
2023-03-29T22:11:21.304Z,-11056.16
2023-03-29T22:14:28.620Z,-11053.75
2023-03-29T22:17:36.429Z,-11063.59
2023-03-29T22:20:42.809Z,-11057.69
2023-03-29T22:23:50.682Z,-11058.81
2023-03-29T22:26:57.269Z,-11058.97
2023-03-29T22:30:04.320Z,-11053.19
2023-03-29T22:33:12.334Z,-11055.16
2023-03-29T22:36:20.260Z,-11062.47
2023-03-29T22:39:27.000Z,-11060.22
2023-03-29T22:42:33.713Z,-11062.47
2023-03-29T22:45:40.210Z,-11061.19
2023-03-29T22:48:48.245Z,-11064.84
2023-03-29T22:51:54.972Z,-11066.25
2023-03-29T22:55:01.746Z,-11053.19
2023-03-29T22:58:08.012Z,-11054.03
2023-03-29T23:01:16.345Z,-11055.88
2023-03-29T23:04:24.136Z,-11053.75
2023-03-29T23:07:30.808Z,-11053.34
2023-03-29T23:10:36.875Z,-11056.44
2023-03-29T23:13:43.517Z,-11056.84
2023-03-29T23:16:50.630Z,-11054.88
2023-03-29T23:19:58.526Z,-11055.16
2023-03-29T23:23:05.038Z,-11052.91
2023-03-29T23:26:11.338Z,-11054.03
2023-03-29T23:29:17.725Z,-11058.53
2023-03-29T23:32:23.969Z,-11065.69
2023-03-29T23:35:31.538Z,-11062.19
2023-03-29T23:38:39.786Z,-11061.47
2023-03-29T23:41:45.981Z,-11061.75
2023-03-29T23:44:51.900Z,-11059.09
2023-03-29T23:47:58.688Z,-11056.00
2023-03-29T23:51:08.052Z,-11054.19
2023-03-29T23:54:15.432Z,-11057.97
2023-03-29T23:57:21.781Z,-11054.31
